• Join FlightAware (Why Join?)
  • Login
  • US Flag 
01:36PM EDT


 

Airport Tracker/Info


-or-


 

Live Flight TrackerFlight Track Log ✈ DAL6067 ✈ 28-Aug-2014 ✈ KDAY - KMSP

Flight Track Log - Related Links

Times and Time Zones

All times are in EDT time to prevent confusion due to time zone crossing. See the DAL6067 flight status page for this flight to view local times or setup timezone preferences in your user account.

Time Position Orientation Groundspeed Altitude Reporting Facility
EDT Latitude Longitude Course Direction KTS MPH feet Rate Location/Type
07:38AM 39.9258 -84.2142 328° Northwest 156 180 1,600  Level Indianapolis Center
07:39AM 39.9756 -84.2422 337° Northwest 210 242 3,300 1,380 Climbing Indianapolis Center
07:39AM 39.9917 -84.2561 327° Northwest 212 244 3,800 1,920 Climbing Indianapolis Center
07:40AM 40.0456 -84.3042 326° Northwest 223 257 6,200 2,340 Climbing Indianapolis Center
07:41AM 40.2037 -84.4870 323° Northwest  Level FlightAware Approximate
07:41AM 40.1100 -84.3664 324° Northwest 234 269 8,600  Level Indianapolis Center
07:42AM 40.2803 -84.5556 326° Northwest  Level FlightAware Approximate
07:42AM 40.1675 -84.4183 325° Northwest 245 282 10,500  Level Indianapolis Center
07:43AM 40.3575 -84.6229 328° Northwest  Level FlightAware Approximate
07:43AM 40.2247 -84.4731 324° Northwest 249 287 12,300  Level Indianapolis Center
07:44AM 40.2850 -84.5294 324° Northwest 259 298 13,800 1,440 Climbing Indianapolis Center
07:45AM 40.3483 -84.5869 325° Northwest 271 312 15,300 1,380 Climbing Indianapolis Center
07:46AM 40.4117 -84.6481 324° Northwest 278 320 16,700 1,200 Climbing Indianapolis Center
07:47AM 40.4761 -84.7078 325° Northwest 279 321 17,800 1,200 Climbing Indianapolis Center
07:48AM 40.5419 -84.7708 324° Northwest 288 331 19,200 1,380 Climbing Indianapolis Center
07:50AM 40.6236 -84.8475 325° Northwest 295 339 20,700 1,380 Climbing Indianapolis Center
07:51AM 40.6903 -84.9128 323° Northwest 296 341 22,100 1,140 Climbing Indianapolis Center
07:52AM 40.7692 -84.9850 325° Northwest 306 352 23,200 840 Climbing Chicago Center
07:53AM 40.8394 -85.0533 324° Northwest 311 358 24,000 840 Climbing Chicago Center
07:54AM 40.9133 -85.1222 325° Northwest 319 367 25,000 1,020 Climbing Chicago Center
07:55AM 40.9861 -85.1936 323° Northwest 324 373 26,200 1,320 Climbing Chicago Center
07:56AM 41.0581 -85.2961 313° West 319 367 27,800 1,320 Climbing Chicago Center
07:57AM 41.1175 -85.3781 314° West 313 360 29,000 1,140 Climbing Chicago Center
07:58AM 41.1761 -85.4600 314° West 311 358 30,200 1,020 Climbing Chicago Center
07:59AM 41.2350 -85.5408 314° West 306 352 31,200 960 Climbing Chicago Center
08:00AM 41.2928 -85.6222 313° West 304 350 32,200 1,020 Climbing Chicago Center
08:01AM 41.3497 -85.7036 313° West 300 345 33,400 840 Climbing Chicago Center
08:02AM 41.4053 -85.7819 313° West 291 335 34,000 240 Climbing Chicago Center
08:03AM 41.4650 -85.8661 313° West 307 353 34,000  Level Chicago Center
08:04AM 41.5411 -85.9711 314° West 323 372 34,000  Level Chicago Center
08:05AM 41.6047 -86.0619 313° West 330 380 34,000  Level Chicago Center
08:06AM 41.6708 -86.1569 313° West 343 395 34,000  Level Chicago Center
08:07AM 41.7372 -86.2506 314° West 344 396 34,000  Level Chicago Center
08:08AM 41.8044 -86.3458 313° West 347 399 34,000  Level Chicago Center
08:09AM 41.8708 -86.4408 313° West 348 400 34,000  Level Chicago Center
08:10AM 41.9378 -86.5372 313° West 349 402 34,000  Level Chicago Center
08:11AM 42.0053 -86.6350 313° West 354 407 34,000  Level Chicago Center
08:12AM 42.0792 -86.7397 314° West 354 407 34,000  Level Chicago Center
08:13AM 42.1467 -86.8394 312° West 358 412 34,000  Level Chicago Center
08:14AM 42.2281 -86.9569 313° West 359 413 34,000  Level Chicago Center
08:15AM 42.2950 -87.0553 313° West 359 413 34,000  Level Chicago Center
08:16AM 42.3603 -87.1528 312° West 353 406 34,000  Level Chicago Center
08:17AM 42.4289 -87.2528 313° West 360 414 34,000  Level Chicago Center
08:18AM 42.4964 -87.3528 312° West 360 414 34,000  Level Chicago Center
08:20AM 42.5642 -87.4542 312° West 362 417 34,000  Level Chicago Center
08:21AM 42.6367 -87.5606 313° West 362 417 34,000  Level Chicago Center
08:22AM 42.7047 -87.6628 312° West 363 418 34,000  Level Chicago Center
08:23AM 42.7858 -87.7842 312° West 363 418 34,000  Level Chicago Center
08:24AM 42.8531 -87.8850 312° West 362 417 34,000  Level Chicago Center
08:25AM 42.9206 -87.9878 312° West 362 417 34,000  Level Chicago Center
08:26AM 42.9869 -88.0892 312° West 361 415 34,000  Level Chicago Center
08:27AM 43.0536 -88.1894 312° West 359 413 34,000  Level Chicago Center
08:28AM 43.1206 -88.2925 312° West 360 414 34,000  Level Chicago Center
08:29AM 43.1825 -88.3981 309° West 358 412 34,000  Level Chicago Center
08:30AM 43.2567 -88.5272 308° West 357 411 34,000  Level Chicago Center
08:31AM 43.3203 -88.6381 308° West 358 412 34,000  Level Chicago Center
08:32AM 43.3844 -88.7489 309° West 362 417 34,000  Level Chicago Center
08:33AM 43.4483 -88.8556 310° West 362 417 34,000  Level Chicago Center
08:34AM 43.5108 -88.9631 309° West 362 417 34,000  Level Chicago Center
08:35AM 43.5733 -89.0714 309° West 362 417 34,000  Level Chicago Center
08:36AM 43.6364 -89.1819 308° West 362 417 34,000  Level Chicago Center
08:37AM 43.7003 -89.2933 308° West 366 421 34,000  Level Chicago Center
08:38AM 43.7511 -89.3822 308° West 369 425 34,000  Level Minneapolis Center
08:39AM 43.8169 -89.4978 308° West 379 436 34,000  Level Minneapolis Center
08:40AM 43.8808 -89.6189 306° West 389 448 34,100  Climbing Minneapolis Center
08:41AM 43.9544 -89.7317 312° West 397 457 34,000 -60 Descending Minneapolis Center
08:42AM 44.0272 -89.8467 311° West 397 457 34,000  Level Minneapolis Center
08:43AM 44.0817 -89.9797 300° West 395 455 34,000  Level Minneapolis Center
08:44AM 44.1386 -90.1119 301° West 397 457 34,000  Level Minneapolis Center
08:45AM 44.1964 -90.2442 301° West 400 460 34,000  Level Minneapolis Center
08:46AM 44.2647 -90.4042 301° West 400 460 34,000  Level Minneapolis Center
08:47AM 44.3217 -90.5375 301° West 400 460 34,000 -300 Level Minneapolis Center
08:48AM 44.3775 -90.6694 301° West 400 460 33,500 -840 Descending Minneapolis Center
08:49AM 44.4342 -90.8033 301° West 400 460 32,400 -1,200 Descending Minneapolis Center
08:50AM 44.4961 -90.9508 301° West 404 465 31,100 -1,260 Descending Minneapolis Center
08:51AM 44.5539 -91.0881 301° West 405 466 29,900 -1,200 Descending Minneapolis Center
08:52AM 44.5972 -91.2322 293° West 418 481 28,700 -1,260 Descending Minneapolis Center
08:53AM 44.6319 -91.3786 288° West 402 463 27,400 -1,680 Descending Minneapolis Center
08:54AM 44.6719 -91.5278 291° West 402 463 25,300 -2,160 Descending Minneapolis Center
08:55AM 44.7133 -91.6817 291° West 411 473 23,000 -2,940 Descending Minneapolis Center
08:56AM 44.7619 -91.8611 291° West 415 478 19,300 -3,420 Descending Minneapolis Center
08:57AM 44.7986 -92.0028 290° West 394 453 16,000 -3,180 Descending Minneapolis Center
08:58AM 44.8378 -92.1417 292° West 384 442 12,800 -2,880 Descending Minneapolis Center
08:59AM 44.8711 -92.2756 289° West 369 425 10,100 -1,380 Descending Minneapolis Center
09:00AM 44.8689 -92.4022 269° West 334 384 10,000 -60 Descending Minneapolis Center
09:01AM 44.8442 -92.5344 255° West 347 399 10,000  Level Minneapolis Center
09:02AM 44.8192 -92.6661 255° West 349 402 10,000  Level Minneapolis Center
09:03AM 44.7933 -92.8022 255° West 296 341 10,100  Climbing Minneapolis Center
09:04AM 44.7733 -92.9058 255° West 283 326 10,000 -540 Descending Minneapolis Center
09:05AM 44.7808 -93.0161 276° West 284 327 9,100 -960 Descending Minneapolis Center
09:06AM 44.7925 -93.1244 279° West 284 327 8,100 -540 Descending Minneapolis Center
09:07AM 44.8022 -93.2242 278° West 269 310 8,100  Level Minneapolis Center
09:09AM 44.8261 -93.3453 286° West 276 318 8,100 -60 Level Minneapolis Center
09:10AM 44.8533 -93.4383 292° West 259 298 8,000 -840 Descending Minneapolis Center
09:11AM 44.8797 -93.5272 293° West 247 284 6,400 -1,500 Descending Minneapolis Center
09:12AM 44.9264 -93.5711 326° Northwest 245 282 5,000 -1,200 Descending Minneapolis Center
09:13AM 44.9544 -93.4975 62° Northeast 234 269 4,000 -720 Descending Minneapolis Center
09:14AM 44.9472 -93.4217 98° East 197 227 3,600 -540 Descending Minneapolis Center
09:15AM 44.9400 -93.3564 99° East 172 198 2,900 -780 Descending Minneapolis Center
09:16AM 44.9200 -93.3092 121° Southeast 142 163 2,100 -840 Descending Minneapolis Center
09:17AM 44.8989 -93.2583 120° Southeast 127 146 1,300 -780 Descending Minneapolis Center